Time;durP1;ratioP1;P1;durP2;ratioP2;P2;SDS_P1;SDS_P2;PMS_P1;PMS_P2;Temp;Humidity;BMP_temperature;BMP_pressure;BME280_temperature;BME280_humidity;BME280_pressure;Samples;Min_cycle;Max_cycle;Signal;HPM_P1;HPM_P2
2024/04/19 00:00:18;;;;;;;4.15;3.63;;;;;;;6.53;100.00;93192.09;2105873;28;20055;-84
2024/04/19 00:01:19;;;;;;;4.60;3.60;;;;;;;6.51;100.00;93190.97;2106393;28;20035;-84
2024/04/19 00:02:20;;;;;;;4.53;4.10;;;;;;;6.51;100.00;93191.72;2114683;28;20023;-85
2024/04/19 00:03:21;;;;;;;4.18;3.78;;;;;;;6.75;100.00;93194.63;2092335;28;20136;-85
2024/04/19 00:04:22;;;;;;;4.20;3.83;;;;;;;6.57;100.00;93200.03;2097903;28;20579;-84
2024/04/19 00:05:23;;;;;;;4.00;3.70;;;;;;;6.59;100.00;93195.13;2098852;28;20023;-84
2024/04/19 00:06:24;;;;;;;6.07;3.83;;;;;;;6.50;100.00;93202.75;2109966;28;20028;-84
2024/04/19 00:07:25;;;;;;;4.40;3.85;;;;;;;6.41;100.00;93197.09;2106681;28;20023;-85
2024/04/19 00:08:27;;;;;;;4.05;3.67;;;;;;;6.24;100.00;93196.78;2114418;28;20106;-84
2024/04/19 00:09:28;;;;;;;4.53;4.03;;;;;;;6.23;100.00;93199.81;2103998;28;20107;-87
2024/04/19 00:10:29;;;;;;;4.45;4.05;;;;;;;6.29;100.00;93190.31;2090050;28;20036;-84
2024/04/19 00:11:30;;;;;;;4.40;3.90;;;;;;;6.01;100.00;93194.63;2100548;28;20481;-84
2024/04/19 00:12:31;;;;;;;4.50;4.10;;;;;;;6.12;100.00;93191.91;2101107;28;20463;-84
2024/04/19 00:13:32;;;;;;;4.45;4.05;;;;;;;6.16;100.00;93194.56;2118717;28;20012;-84
2024/04/19 00:14:33;;;;;;;3.85;3.55;;;;;;;6.18;100.00;93194.91;2127524;27;20081;-83
2024/04/19 00:15:34;;;;;;;4.22;3.75;;;;;;;6.35;100.00;93196.75;2126449;27;20028;-84
2024/04/19 00:16:35;;;;;;;4.40;3.97;;;;;;;6.30;100.00;93199.81;2117985;27;20020;-84
2024/04/19 00:17:36;;;;;;;4.38;3.92;;;;;;;6.31;100.00;93188.78;2111570;28;20074;-84
2024/04/19 00:18:37;;;;;;;4.88;4.47;;;;;;;6.24;100.00;93190.72;2102391;28;20028;-84
2024/04/19 00:19:38;;;;;;;5.18;4.70;;;;;;;6.29;100.00;93192.97;2101986;28;20024;-85
2024/04/19 00:20:39;;;;;;;4.80;4.30;;;;;;;6.43;100.00;93198.22;2098021;28;20107;-84
2024/04/19 00:21:40;;;;;;;4.38;3.97;;;;;;;6.28;100.00;93191.47;2121379;27;20019;-84
2024/04/19 00:22:41;;;;;;;4.93;4.50;;;;;;;6.35;100.00;93195.97;2120374;27;20046;-85
2024/04/19 00:23:42;;;;;;;5.60;4.50;;;;;;;6.44;100.00;93183.78;2114583;28;20114;-85
2024/04/19 00:24:43;;;;;;;4.85;4.38;;;;;;;6.54;100.00;93183.00;2108879;28;20023;-85
2024/04/19 00:25:44;;;;;;;4.70;4.30;;;;;;;6.64;100.00;93175.38;2089604;28;20076;-84
2024/04/19 00:26:45;;;;;;;4.72;4.28;;;;;;;6.64;100.00;93178.00;2089231;28;20052;-85
2024/04/19 00:27:46;;;;;;;4.85;4.25;;;;;;;6.33;100.00;93177.78;2096559;28;20121;-85
2024/04/19 00:28:48;;;;;;;4.57;4.15;;;;;;;6.20;100.00;93177.47;2089663;28;20059;-84
2024/04/19 00:29:49;;;;;;;4.47;4.07;;;;;;;6.17;100.00;93177.47;2089510;28;20024;-85
2024/04/19 00:30:54;;;;;;;4.97;3.70;;;;;;;6.11;100.00;93177.13;2106093;28;20519;-85
2024/04/19 00:31:55;;;;;;;5.22;4.57;;;;;;;6.12;100.00;93168.03;2105625;28;20584;-86
2024/04/19 00:32:57;;;;;;;5.55;4.28;;;;;;;6.08;100.00;93172.59;2081213;28;20117;-84
2024/04/19 00:33:58;;;;;;;5.00;4.50;;;;;;;6.05;100.00;93168.78;2090019;28;20039;-85
2024/04/19 00:34:59;;;;;;;4.50;3.90;;;;;;;6.17;100.00;93170.28;2118163;27;20023;-85
2024/04/19 00:36:00;;;;;;;4.78;4.38;;;;;;;6.26;100.00;93167.19;2114141;28;20028;-85
2024/04/19 00:37:02;;;;;;;4.53;3.72;;;;;;;6.33;100.00;93167.19;2106418;28;20389;-85
2024/04/19 00:38:03;;;;;;;4.68;4.28;;;;;;;6.36;100.00;93160.31;2111425;28;20094;-85
2024/04/19 00:39:04;;;;;;;5.13;4.60;;;;;;;6.08;100.00;93177.91;2114719;28;20487;-84
2024/04/19 00:40:05;;;;;;;6.30;4.25;;;;;;;6.41;100.00;93163.34;2098177;28;20027;-85
2024/04/19 00:41:06;;;;;;;4.72;4.30;;;;;;;5.95;100.00;93164.28;2091629;28;20387;-85
2024/04/19 00:42:07;;;;;;;4.60;4.20;;;;;;;6.07;100.00;93167.69;2099926;28;20044;-84
2024/04/19 00:43:08;;;;;;;4.53;4.13;;;;;;;6.18;100.00;93165.72;2097753;28;20052;-85
2024/04/19 00:44:09;;;;;;;5.10;4.60;;;;;;;6.00;100.00;93157.84;2106433;28;20035;-85
2024/04/19 00:45:31;;;;;;;5.13;4.63;;;;;;;6.09;100.00;93157.41;2106042;28;20055;-85
2024/04/19 00:46:33;;;;;;;4.85;4.40;;;;;;;6.12;100.00;93160.06;2094759;28;20020;-85
2024/04/19 00:47:37;;;;;;;5.45;4.95;;;;;;;6.27;100.00;93163.41;2081446;28;20060;-85
2024/04/19 00:48:40;;;;;;;5.45;4.60;;;;;;;6.19;100.00;93157.38;2098132;28;20059;-86
2024/04/19 00:49:41;;;;;;;5.57;5.03;;;;;;;6.01;100.00;93154.81;2101647;28;20148;-85
2024/04/19 00:50:50;;;;;;;5.82;5.00;;;;;;;6.23;100.00;93155.47;2097270;28;20033;-85
2024/04/19 00:51:51;;;;;;;5.43;4.93;;;;;;;5.88;100.00;93164.28;2099446;28;20028;-84
2024/04/19 00:52:52;;;;;;;5.43;4.93;;;;;;;6.12;100.00;93160.06;2092377;28;20028;-85
2024/04/19 00:53:53;;;;;;;5.43;4.93;;;;;;;6.31;100.00;93153.53;2113635;28;20570;-85
2024/04/19 00:54:55;;;;;;;6.20;5.60;;;;;;;6.14;100.00;93157.78;2109058;27;20047;-85
2024/04/19 00:55:57;;;;;;;6.90;6.20;;;;;;;6.18;100.00;93155.84;2108520;28;20157;-84
2024/04/19 00:56:58;;;;;;;7.80;5.65;;;;;;;6.25;100.00;93157.72;2081606;28;20060;-85
2024/04/19 00:58:00;;;;;;;5.38;4.88;;;;;;;6.03;100.00;93151.75;2101342;28;20098;-85
2024/04/19 00:59:01;;;;;;;6.70;5.70;;;;;;;6.18;100.00;93158.50;2114383;28;20031;-85
2024/04/19 01:00:03;;;;;;;7.05;6.07;;;;;;;5.97;100.00;93148.75;2097469;28;20502;-85
2024/04/19 01:01:05;;;;;;;6.65;5.55;;;;;;;6.20;100.00;93153.59;2097675;28;20063;-85
2024/04/19 01:02:07;;;;;;;6.65;5.53;;;;;;;6.01;100.00;93151.38;2093659;28;20025;-86
2024/04/19 01:03:10;;;;;;;6.35;5.75;;;;;;;5.93;100.00;93149.91;2100807;28;20028;-85
2024/04/19 01:04:12;;;;;;;6.45;5.75;;;;;;;6.09;100.00;93144.91;2106086;27;20016;-85
2024/04/19 01:05:13;;;;;;;6.28;5.68;;;;;;;6.30;100.00;93146.72;2121639;27;20034;-85
2024/04/19 01:06:14;;;;;;;6.55;5.78;;;;;;;6.42;100.00;93148.94;2106386;28;20032;-86
2024/04/19 01:07:15;;;;;;;6.70;6.00;;;;;;;6.17;100.00;93145.63;2097585;28;20017;-86
2024/04/19 01:08:16;;;;;;;7.43;6.03;;;;;;;5.95;100.00;93148.38;2099250;28;20506;-85
2024/04/19 01:09:17;;;;;;;6.20;5.60;;;;;;;5.94;100.00;93148.78;2097363;28;20125;-85
2024/04/19 01:10:19;;;;;;;6.40;5.80;;;;;;;5.97;100.00;93145.34;2121717;27;20154;-85
2024/04/19 01:11:20;;;;;;;6.32;5.60;;;;;;;6.11;100.00;93150.59;2109693;28;20362;-85
2024/04/19 01:12:21;;;;;;;7.15;6.45;;;;;;;5.87;100.00;93146.09;2089207;28;20040;-85
2024/04/19 01:13:23;;;;;;;6.57;5.90;;;;;;;5.62;100.00;93144.31;2089291;28;20028;-85
2024/04/19 01:14:24;;;;;;;8.25;6.25;;;;;;;5.91;100.00;93144.19;2106745;28;20496;-85
2024/04/19 01:15:25;;;;;;;7.68;6.20;;;;;;;5.94;100.00;93144.22;2097292;28;20115;-85
2024/04/19 01:16:26;;;;;;;6.53;5.78;;;;;;;5.95;100.00;93137.00;2102026;28;20032;-85
2024/04/19 01:17:28;;;;;;;6.25;5.63;;;;;;;5.97;100.00;93145.34;2097591;28;20032;-85
2024/04/19 01:18:28;;;;;;;8.60;6.03;;;;;;;6.05;100.00;93152.88;2097278;28;20066;-85
2024/04/19 01:19:29;;;;;;;6.47;5.63;;;;;;;5.86;100.00;93150.66;2099209;28;20032;-86
2024/04/19 01:20:30;;;;;;;8.45;5.65;;;;;;;5.91;100.00;93142.28;2097171;28;20024;-84
2024/04/19 01:21:32;;;;;;;7.95;6.55;;;;;;;5.80;100.00;93147.66;2091677;28;20096;-86
2024/04/19 01:22:33;;;;;;;7.15;6.45;;;;;;;5.90;100.00;93150.66;2105517;28;20061;-85
2024/04/19 01:23:35;;;;;;;6.63;5.93;;;;;;;6.08;100.00;93142.66;2107316;28;20047;-86
2024/04/19 01:24:44;;;;;;;6.72;6.03;;;;;;;6.00;100.00;93137.38;2109262;28;20054;-85
2024/04/19 01:25:57;;;;;;;7.40;5.90;;;;;;;6.03;100.00;93143.81;2105879;28;20102;-85
2024/04/19 01:27:09;;;;;;;5.90;5.35;;;;;;;5.77;100.00;93137.06;2106685;28;20410;-85
2024/04/19 01:28:11;;;;;;;8.00;5.70;;;;;;;5.72;100.00;93140.84;2110427;28;20575;-84
2024/04/19 01:29:12;;;;;;;6.50;5.90;;;;;;;5.89;100.00;93136.63;2105490;28;20473;-85
2024/04/19 01:30:13;;;;;;;7.20;6.50;;;;;;;5.97;100.00;93140.03;2100372;28;20078;-85
2024/04/19 01:31:15;;;;;;;6.82;6.13;;;;;;;5.83;100.00;93143.47;2097586;28;20108;-86
2024/04/19 01:32:16;;;;;;;8.60;6.05;;;;;;;5.91;100.00;93139.66;2089166;28;20029;-86
2024/04/19 01:33:16;;;;;;;7.55;6.47;;;;;;;5.93;100.00;93131.34;2101077;28;20457;-85
2024/04/19 01:34:19;;;;;;;7.97;5.82;;;;;;;5.79;100.00;93137.41;2096910;28;20409;-87
2024/04/19 01:35:20;;;;;;;7.85;6.43;;;;;;;5.85;100.00;93143.09;2105748;28;20123;-85
2024/04/19 01:36:21;;;;;;;7.85;5.90;;;;;;;6.01;100.00;93138.13;2114158;28;20031;-85
2024/04/19 01:37:24;;;;;;;7.18;6.43;;;;;;;6.01;100.00;93133.59;2105996;28;20024;-85
2024/04/19 01:38:25;;;;;;;6.72;6.03;;;;;;;5.85;100.00;93129.84;2090719;28;20031;-85
2024/04/19 01:39:26;;;;;;;6.55;5.68;;;;;;;5.77;100.00;93132.50;2098659;28;20017;-86
2024/04/19 01:40:27;;;;;;;8.38;6.65;;;;;;;5.88;100.00;93127.16;2105563;28;20062;-85
2024/04/19 01:41:28;;;;;;;6.75;5.80;;;;;;;5.86;100.00;93132.09;2089622;28;20377;-86
2024/04/19 01:42:29;;;;;;;6.80;6.18;;;;;;;5.79;100.00;93121.50;2097471;28;20028;-86
2024/04/19 01:43:30;;;;;;;7.50;6.30;;;;;;;6.15;100.00;93132.00;2097444;28;20119;-85
2024/04/19 01:44:31;;;;;;;6.93;6.22;;;;;;;5.80;100.00;93125.69;2099434;28;20036;-86
2024/04/19 01:45:32;;;;;;;8.73;6.53;;;;;;;5.99;100.00;93130.56;2105815;28;20078;-85
2024/04/19 01:46:33;;;;;;;8.30;6.65;;;;;;;5.84;100.00;93128.31;2109289;28;20093;-85
2024/04/19 01:47:35;;;;;;;6.93;6.18;;;;;;;5.80;100.00;93125.69;2111860;28;20101;-85
2024/04/19 01:48:36;;;;;;;8.43;7.00;;;;;;;5.80;100.00;93128.34;2097265;28;20436;-87
2024/04/19 01:49:38;;;;;;;7.97;6.25;;;;;;;5.92;100.00;93124.50;2093528;28;20116;-85
2024/04/19 01:50:39;;;;;;;8.05;6.38;;;;;;;6.23;100.00;93131.59;2089412;28;20068;-86
2024/04/19 01:51:41;;;;;;;7.18;6.47;;;;;;;5.76;100.00;93130.25;2099688;28;20035;-85
2024/04/19 01:52:42;;;;;;;7.10;6.43;;;;;;;6.07;100.00;93120.66;2111054;28;20035;-87
2024/04/19 01:53:43;;;;;;;7.55;6.78;;;;;;;6.08;100.00;93118.78;2111673;28;20078;-86
2024/04/19 01:54:44;;;;;;;7.47;6.70;;;;;;;5.88;100.00;93127.16;2105835;28;20050;-85
2024/04/19 01:55:45;;;;;;;7.25;6.47;;;;;;;5.79;100.00;93124.94;2111901;28;20020;-85
2024/04/19 01:56:46;;;;;;;7.78;6.97;;;;;;;5.82;100.00;93118.09;2097776;28;20119;-86
2024/04/19 01:57:47;;;;;;;7.53;6.38;;;;;;;5.86;100.00;93118.06;2094762;28;20035;-86
2024/04/19 01:58:48;;;;;;;7.20;6.50;;;;;;;6.11;100.00;93120.66;2104551;28;20088;-85
2024/04/19 01:59:49;;;;;;;6.85;6.18;;;;;;;6.08;100.00;93118.78;2100008;28;20055;-85
2024/04/19 02:00:50;;;;;;;7.50;6.72;;;;;;;6.00;100.00;93115.38;2105812;28;20024;-85
2024/04/19 02:01:51;;;;;;;7.13;6.40;;;;;;;5.98;100.00;93115.78;2113475;28;20020;-85
2024/04/19 02:02:52;;;;;;;7.90;6.95;;;;;;;6.12;100.00;93114.97;2091318;28;20124;-86
2024/04/19 02:03:53;;;;;;;7.20;6.50;;;;;;;6.11;100.00;93113.44;2105500;28;20396;-85
2024/04/19 02:04:56;;;;;;;6.80;6.10;;;;;;;6.02;100.00;93113.88;2105075;28;20054;-85
2024/04/19 02:06:08;;;;;;;6.90;5.95;;;;;;;5.82;100.00;93107.47;2105141;28;20028;-86
2024/04/19 02:07:09;;;;;;;7.30;6.55;;;;;;;6.09;100.00;93109.66;2098751;28;20101;-84
2024/04/19 02:08:10;;;;;;;10.88;6.30;;;;;;;5.93;100.00;93108.22;2105174;28;20085;-85
2024/04/19 02:09:11;;;;;;;7.10;6.40;;;;;;;5.77;100.00;93102.56;2113664;28;20031;-87
2024/04/19 02:10:12;;;;;;;9.00;6.90;;;;;;;5.92;100.00;93097.97;2104860;28;20175;-85
2024/04/19 02:11:13;;;;;;;8.05;6.47;;;;;;;6.07;100.00;93099.44;2102272;28;20043;-86
2024/04/19 02:12:14;;;;;;;6.70;6.00;;;;;;;5.89;100.00;93098.75;2105362;28;20671;-86
2024/04/19 02:13:15;;;;;;;7.13;6.40;;;;;;;5.92;100.00;93100.63;2096548;28;20052;-85
2024/04/19 02:14:16;;;;;;;8.60;6.53;;;;;;;6.01;100.00;93098.31;2104823;28;20447;-87
2024/04/19 02:15:19;;;;;;;7.05;6.35;;;;;;;5.97;100.00;93103.66;2096932;28;20039;-87
2024/04/19 02:16:20;;;;;;;8.45;6.35;;;;;;;6.00;100.00;93100.22;2093009;28;20078;-86
2024/04/19 02:17:21;;;;;;;7.63;6.82;;;;;;;5.95;100.00;93097.22;2105237;28;20032;-86
2024/04/19 02:18:22;;;;;;;6.63;5.97;;;;;;;5.76;100.00;93099.16;2088815;28;20025;-86
2024/04/19 02:19:23;;;;;;;7.70;6.53;;;;;;;5.94;100.00;93095.72;2095176;28;20083;-85
2024/04/19 02:20:24;;;;;;;7.13;6.35;;;;;;;6.08;100.00;93086.94;2088726;28;20043;-86
2024/04/19 02:21:27;;;;;;;7.28;6.13;;;;;;;6.31;100.00;93087.16;2088393;28;20029;-86
2024/04/19 02:22:28;;;;;;;7.55;6.70;;;;;;;6.12;100.00;93098.28;2089939;28;20040;-85
2024/04/19 02:23:35;;;;;;;7.10;6.13;;;;;;;6.20;100.00;93084.59;2089002;28;20021;-85
2024/04/19 02:24:36;;;;;;;7.95;6.18;;;;;;;6.35;100.00;93085.25;2092183;28;20036;-85
2024/04/19 02:25:37;;;;;;;7.22;6.50;;;;;;;6.01;100.00;93085.84;2097077;28;20016;-85
2024/04/19 02:31:51;;;;;;;6.97;6.00;;;;;;;3.48;100.00;93091.91;2115044;28;20063;-86
2024/04/19 02:32:52;;;;;;;6.55;5.90;;;;;;;3.51;100.00;93095.69;2114944;28;20442;-88
2024/04/19 02:33:53;;;;;;;7.85;6.38;;;;;;;3.68;100.00;93091.59;2112341;28;20096;-86
2024/04/19 02:34:54;;;;;;;6.47;5.88;;;;;;;3.65;100.00;93089.72;2102381;28;20406;-86
2024/04/19 02:36:03;;;;;;;6.65;6.05;;;;;;;3.56;100.00;93082.13;2103946;28;20079;-87
2024/04/19 02:37:04;;;;;;;7.15;6.40;;;;;;;3.89;100.00;93083.75;2105169;28;20859;-86
2024/04/19 02:38:05;;;;;;;7.65;6.38;;;;;;;4.07;100.00;93085.69;2099822;28;20029;-85
2024/04/19 02:39:06;;;;;;;7.18;6.47;;;;;;;4.21;100.00;93083.06;2095823;28;20131;-87
2024/04/19 02:40:07;;;;;;;7.13;6.43;;;;;;;4.21;100.00;93081.16;2094729;28;20029;-88
2024/04/19 02:41:09;;;;;;;7.05;6.35;;;;;;;3.99;100.00;93082.25;2103849;28;20047;-87
2024/04/19 02:42:09;;;;;;;7.97;6.75;;;;;;;4.00;100.00;93078.50;2101063;28;20029;-88
2024/04/19 02:43:10;;;;;;;8.85;6.90;;;;;;;4.20;100.00;93084.19;2097399;28;20036;-87
2024/04/19 02:44:11;;;;;;;8.05;6.07;;;;;;;4.00;100.00;93078.50;2112600;28;20077;-86
2024/04/19 02:45:12;;;;;;;7.38;6.60;;;;;;;4.17;100.00;93085.72;2103972;28;20021;-86
2024/04/19 02:46:17;;;;;;;7.68;6.35;;;;;;;4.09;100.00;93081.53;2099572;28;20032;-88
2024/04/19 02:47:18;;;;;;;8.80;6.35;;;;;;;3.98;100.00;93091.31;2104661;28;20027;-87
2024/04/19 02:48:19;;;;;;;7.28;5.90;;;;;;;3.84;100.00;93086.00;2101730;28;20345;-87
2024/04/19 02:49:20;;;;;;;6.90;6.20;;;;;;;3.85;100.00;93080.34;2095209;28;20037;-89
2024/04/19 02:50:20;;;;;;;8.02;6.80;;;;;;;4.07;100.00;93093.63;2095454;28;20052;-86
2024/04/19 02:51:21;;;;;;;8.30;5.95;;;;;;;4.02;100.00;93084.91;2111988;28;20453;-88
2024/04/19 02:52:24;;;;;;;7.57;6.60;;;;;;;3.95;100.00;93086.78;2104060;28;20083;-87
2024/04/19 02:53:25;;;;;;;7.13;5.93;;;;;;;3.79;100.00;93082.59;2103771;28;20133;-86
2024/04/19 02:54:26;;;;;;;7.20;6.50;;;;;;;3.97;100.00;93074.72;2104119;28;20074;-87
2024/04/19 02:55:27;;;;;;;8.07;7.00;;;;;;;3.92;100.00;93082.25;2111754;28;20024;-87
2024/04/19 02:56:28;;;;;;;7.60;6.00;;;;;;;3.92;100.00;93087.53;2103798;28;20024;-87
2024/04/19 02:57:29;;;;;;;8.32;6.88;;;;;;;3.82;100.00;93082.97;2103952;28;20377;-88
2024/04/19 02:58:30;;;;;;;6.90;6.03;;;;;;;3.82;100.00;93075.03;2103825;28;20424;-87
2024/04/19 02:59:31;;;;;;;8.85;6.35;;;;;;;3.77;100.00;93073.50;2097719;28;20108;-86
2024/04/19 03:00:32;;;;;;;7.93;6.20;;;;;;;3.82;100.00;93075.03;2104028;28;20032;-87
2024/04/19 03:01:35;;;;;;;8.82;6.18;;;;;;;3.84;100.00;93070.91;2112087;28;20072;-87
2024/04/19 03:02:36;;;;;;;6.63;6.03;;;;;;;3.95;100.00;93078.84;2104107;28;20349;-86
2024/04/19 03:03:37;;;;;;;6.90;6.20;;;;;;;3.99;100.00;93069.78;2101853;28;20033;-88
2024/04/19 03:04:39;;;;;;;7.35;6.03;;;;;;;4.02;100.00;93076.97;2098944;28;20118;-86
2024/04/19 03:05:41;;;;;;;6.30;5.70;;;;;;;3.93;100.00;93066.00;2095559;28;20111;-87
2024/04/19 03:06:42;;;;;;;9.23;6.57;;;;;;;3.94;100.00;93070.16;2101720;28;21703;-86
2024/04/19 03:07:42;;;;;;;7.93;6.07;;;;;;;3.81;100.00;93079.56;2104391;28;20032;-88
2024/04/19 03:08:43;;;;;;;6.50;5.80;;;;;;;3.81;100.00;93074.28;2104082;28;20062;-88
2024/04/19 03:09:46;;;;;;;8.05;5.97;;;;;;;3.82;100.00;93070.53;2099353;28;20051;-86
2024/04/19 03:10:47;;;;;;;7.72;5.97;;;;;;;3.87;100.00;93072.81;2095939;28;20166;-87
2024/04/19 03:11:48;;;;;;;6.40;5.75;;;;;;;3.97;100.00;93061.47;2111085;28;20069;-87
2024/04/19 03:12:50;;;;;;;8.63;6.28;;;;;;;3.92;100.00;93059.22;2103714;28;20031;-88
2024/04/19 03:13:51;;;;;;;6.95;6.28;;;;;;;3.90;100.00;93060.72;2103835;28;20443;-86
2024/04/19 03:14:52;;;;;;;6.85;5.97;;;;;;;3.81;100.00;93053.13;2102148;28;20025;-86
2024/04/19 03:16:02;;;;;;;7.03;6.32;;;;;;;3.80;100.00;93054.28;2112268;27;20028;-86
2024/04/19 03:17:04;;;;;;;6.13;5.53;;;;;;;3.88;100.00;93053.16;2119278;28;20643;-88
2024/04/19 03:18:05;;;;;;;8.10;6.00;;;;;;;3.92;100.00;93046.00;2095723;28;20134;-88
2024/04/19 03:19:06;;;;;;;7.15;5.97;;;;;;;4.04;100.00;93050.19;2095565;28;20540;-89
2024/04/19 03:20:07;;;;;;;6.40;5.65;;;;;;;4.08;100.00;93052.81;2102702;28;20039;-88
2024/04/19 03:21:08;;;;;;;7.82;5.82;;;;;;;4.01;100.00;93049.03;2103511;28;20052;-87
2024/04/19 03:22:09;;;;;;;7.03;5.43;;;;;;;4.02;100.00;93047.88;2087234;28;20044;-86
2024/04/19 03:23:10;;;;;;;6.32;5.72;;;;;;;3.88;100.00;93047.13;2091512;28;20135;-88
2024/04/19 03:24:11;;;;;;;7.95;6.13;;;;;;;3.78;100.00;93041.44;2097201;28;20496;-86
2024/04/19 03:25:12;;;;;;;6.47;5.72;;;;;;;3.82;100.00;93048.59;2099454;28;20081;-89
2024/04/19 03:26:13;;;;;;;6.45;5.60;;;;;;;3.85;100.00;93040.69;2095965;28;20479;-90
2024/04/19 03:27:14;;;;;;;7.70;5.22;;;;;;;3.85;100.00;93045.22;2095013;28;20034;-88
2024/04/19 03:28:15;;;;;;;5.85;5.32;;;;;;;3.79;100.00;93050.88;2094952;28;20037;-88
2024/04/19 03:29:16;;;;;;;6.85;5.65;;;;;;;3.74;100.00;93037.28;2086951;28;20017;-87
2024/04/19 03:30:25;;;;;;;6.10;5.43;;;;;;;3.81;100.00;93042.56;2095280;28;20055;-85
2024/04/19 03:31:26;;;;;;;5.43;4.93;;;;;;;3.84;100.00;93041.81;2115912;28;20020;-88
2024/04/19 03:32:27;;;;;;;5.95;5.40;;;;;;;3.89;100.00;93041.44;2112023;28;20031;-87
2024/04/19 03:33:28;;;;;;;5.72;5.15;;;;;;;3.80;100.00;93035.75;2103646;28;20024;-86
2024/04/19 03:34:29;;;;;;;6.20;5.60;;;;;;;3.89;100.00;93033.50;2103519;28;20039;-88
2024/04/19 03:35:30;;;;;;;5.50;4.88;;;;;;;3.97;100.00;93037.69;2103627;28;20805;-87
2024/04/19 03:36:31;;;;;;;6.90;5.22;;;;;;;3.84;100.00;93028.59;2103729;28;20036;-87
2024/04/19 03:37:32;;;;;;;6.43;5.35;;;;;;;3.98;100.00;93025.22;2110834;28;20726;-87
2024/04/19 03:38:33;;;;;;;7.30;5.47;;;;;;;3.89;100.00;93022.94;2110258;28;20016;-88
2024/04/19 03:39:34;;;;;;;6.55;5.75;;;;;;;3.90;100.00;93021.81;2089551;28;20036;-88
2024/04/19 03:40:35;;;;;;;7.47;5.55;;;;;;;3.90;100.00;93029.72;2081655;28;20021;-86
2024/04/19 03:41:37;;;;;;;7.63;5.63;;;;;;;3.75;100.00;93026.31;2086910;28;20115;-87
2024/04/19 03:42:46;;;;;;;6.00;5.40;;;;;;;3.85;100.00;93024.06;2097897;28;20020;-88
2024/04/19 03:46:26;;;;;;;6.63;5.18;;;;;;;3.83;100.00;93016.50;2117274;27;20042;-90
2024/04/19 03:47:27;;;;;;;6.95;5.18;;;;;;;3.89;100.00;93020.28;2114887;28;20486;-87
2024/04/19 03:48:28;;;;;;;5.78;5.18;;;;;;;4.11;100.00;93012.38;2106233;28;20097;-89
2024/04/19 03:49:29;;;;;;;6.15;5.53;;;;;;;4.23;100.00;93010.13;2097815;28;20024;-88
2024/04/19 03:50:30;;;;;;;7.00;5.40;;;;;;;4.10;100.00;93010.88;2081658;28;20488;-87
2024/04/19 03:51:30;;;;;;;8.52;5.00;;;;;;;3.89;100.00;93009.72;2094000;28;20111;-87
2024/04/19 03:52:31;;;;;;;7.10;5.35;;;;;;;3.81;100.00;93015.38;2092311;28;20029;-85
2024/04/19 03:53:32;;;;;;;8.15;5.65;;;;;;;3.87;100.00;93016.53;2097013;28;20032;-88
2024/04/19 03:54:33;;;;;;;6.80;5.85;;;;;;;3.97;100.00;93002.56;2106057;28;20048;-86
2024/04/19 03:55:34;;;;;;;5.65;5.05;;;;;;;4.09;100.00;93015.41;2100148;28;20036;-88
2024/04/19 03:56:45;;;;;;;6.25;5.22;;;;;;;4.20;100.00;93007.47;2086537;28;20025;-89
2024/04/19 03:57:46;;;;;;;5.95;5.45;;;;;;;3.90;100.00;93007.81;2092408;28;20070;-87
2024/04/19 03:58:47;;;;;;;6.85;5.28;;;;;;;4.20;100.00;93010.13;2089646;28;20104;-85
2024/04/19 03:59:48;;;;;;;6.82;5.25;;;;;;;4.34;100.00;93004.84;2089612;28;20029;-86
2024/04/19 04:00:49;;;;;;;5.43;4.93;;;;;;;4.21;100.00;93011.63;2085871;28;20117;-88
2024/04/19 04:01:50;;;;;;;5.63;4.95;;;;;;;4.25;100.00;93013.16;2103951;28;20028;-86
2024/04/19 04:02:51;;;;;;;5.53;4.93;;;;;;;4.14;100.00;93014.28;2097676;28;20028;-85
2024/04/19 04:03:53;;;;;;;6.47;5.25;;;;;;;4.11;100.00;93012.38;2097910;28;20024;-85
2024/04/19 04:04:54;;;;;;;5.40;4.90;;;;;;;3.96;100.00;93012.38;2106029;28;20024;-90
2024/04/19 04:05:55;;;;;;;6.10;5.43;;;;;;;3.90;100.00;93018.41;2098048;28;20024;-87
2024/04/19 04:06:56;;;;;;;6.70;4.97;;;;;;;3.89;100.00;93011.59;2105987;28;20044;-89
2024/04/19 04:07:57;;;;;;;8.23;6.38;;;;;;;3.69;100.00;93017.25;2103754;28;20032;-86
2024/04/19 04:08:58;;;;;;;6.93;5.70;;;;;;;3.82;100.00;93017.66;2097819;28;20031;-87
2024/04/19 04:09:59;;;;;;;5.45;4.65;;;;;;;4.01;100.00;93013.91;2101648;28;20063;-86
2024/04/19 04:11:00;;;;;;;5.78;5.18;;;;;;;3.96;100.00;93015.03;2092446;28;20397;-91
2024/04/19 04:12:01;;;;;;;5.32;4.82;;;;;;;3.81;100.00;93015.38;2114435;28;20027;-87
2024/04/19 04:13:02;;;;;;;5.70;5.10;;;;;;;3.68;100.00;93014.97;2114154;28;20065;-86
2024/04/19 04:14:03;;;;;;;6.00;5.40;;;;;;;3.86;100.00;93009.72;2096255;28;20016;-86
2024/04/19 04:15:05;;;;;;;6.10;5.30;;;;;;;3.71;100.00;93012.31;2089675;28;20028;-89
2024/04/19 04:16:07;;;;;;;7.30;6.60;;;;;;;3.74;100.00;93016.13;2088815;28;20036;-88
2024/04/19 04:17:08;;;;;;;9.30;6.60;;;;;;;3.81;100.00;93010.84;2089639;28;20032;-89
2024/04/19 04:18:09;;;;;;;8.25;7.13;;;;;;;3.65;100.00;93015.72;2093431;28;20078;-88
2024/04/19 04:19:10;;;;;;;7.60;6.78;;;;;;;3.79;100.00;93010.47;2089450;28;20048;-88
2024/04/19 04:20:11;;;;;;;7.40;6.70;;;;;;;3.81;100.00;93000.25;2088209;28;20091;-88
2024/04/19 04:21:12;;;;;;;9.35;8.43;;;;;;;3.71;100.00;93006.28;2091279;28;20033;-88
2024/04/19 04:22:13;;;;;;;7.05;6.38;;;;;;;3.66;100.00;93006.66;2089438;28;20031;-88
2024/04/19 04:23:15;;;;;;;6.55;5.82;;;;;;;3.61;100.00;93005.13;2089467;28;20032;-89
2024/04/19 04:24:16;;;;;;;6.13;5.47;;;;;;;3.78;100.00;93007.06;2089831;28;20167;-87
2024/04/19 04:25:17;;;;;;;6.97;5.72;;;;;;;3.59;100.00;93007.38;2097152;28;20020;-87
2024/04/19 04:26:18;;;;;;;9.60;8.05;;;;;;;3.55;100.00;93001.31;2089228;28;20025;-88
2024/04/19 04:27:19;;;;;;;10.50;9.23;;;;;;;3.58;100.00;93007.75;2080924;28;20017;-89
2024/04/19 04:28:20;;;;;;;9.57;8.25;;;;;;;3.44;100.00;93011.13;2094213;28;20210;-88
2024/04/19 04:29:21;;;;;;;8.65;7.10;;;;;;;3.59;100.00;93011.91;2097427;28;20033;-86
2024/04/19 04:30:22;;;;;;;5.75;5.15;;;;;;;3.52;100.00;93005.50;2081096;28;20123;-87
2024/04/19 04:31:23;;;;;;;6.20;5.60;;;;;;;3.71;100.00;93007.03;2091876;28;20052;-87
2024/04/19 04:32:25;;;;;;;7.07;5.13;;;;;;;3.49;100.00;93003.59;2106382;28;20032;-88
2024/04/19 04:33:26;;;;;;;5.78;5.18;;;;;;;3.64;100.00;93001.72;2105700;28;20039;-87
2024/04/19 04:34:32;;;;;;;5.80;5.15;;;;;;;3.53;100.00;93009.63;2098454;28;20056;-89
2024/04/19 04:35:37;;;;;;;8.80;7.28;;;;;;;3.74;100.00;93000.25;2097963;28;20568;-90
2024/04/19 04:36:38;;;;;;;14.18;12.40;;;;;;;3.77;100.00;93005.53;2098256;28;20753;-88
2024/04/19 04:37:39;;;;;;;12.30;10.55;;;;;;;3.64;100.00;93000.97;2096611;28;20127;-88
2024/04/19 04:38:40;;;;;;;11.38;9.93;;;;;;;3.72;100.00;93005.16;2088931;28;20108;-87
2024/04/19 04:39:41;;;;;;;10.02;8.63;;;;;;;3.60;100.00;93008.13;2088884;28;20109;-87
2024/04/19 04:40:42;;;;;;;9.75;8.65;;;;;;;3.56;100.00;93004.72;2105530;28;20023;-88
2024/04/19 04:41:43;;;;;;;8.65;7.72;;;;;;;3.59;100.00;93001.34;2096993;28;20020;-87
2024/04/19 04:42:44;;;;;;;7.82;7.13;;;;;;;3.67;100.00;93005.53;2087653;28;20021;-88
2024/04/19 04:43:47;;;;;;;8.00;7.20;;;;;;;3.67;100.00;93008.16;2094686;28;20028;-87
2024/04/19 04:44:48;;;;;;;7.82;7.03;;;;;;;3.78;100.00;93007.06;2089155;28;20457;-88
2024/04/19 04:45:49;;;;;;;7.95;7.05;;;;;;;3.76;100.00;93003.28;2085095;28;20024;-87
2024/04/19 04:46:50;;;;;;;7.60;6.90;;;;;;;3.70;100.00;93010.81;2085505;28;20025;-86
2024/04/19 04:47:51;;;;;;;8.65;6.78;;;;;;;3.75;100.00;93007.06;2086627;28;20079;-85
2024/04/19 04:48:52;;;;;;;6.80;6.20;;;;;;;3.81;100.00;92991.56;2099815;28;20455;-88
2024/04/19 04:49:53;;;;;;;7.07;6.38;;;;;;;3.85;100.00;92994.97;2096155;28;20025;-88
2024/04/19 04:50:54;;;;;;;7.20;6.15;;;;;;;3.82;100.00;92991.22;2094710;28;20032;-88
2024/04/19 04:51:55;;;;;;;8.43;7.03;;;;;;;3.96;100.00;92991.22;2093679;28;20363;-86
2024/04/19 04:53:01;;;;;;;7.05;6.38;;;;;;;3.76;100.00;92988.16;2100352;28;20035;-87
2024/04/19 04:54:02;;;;;;;6.47;5.88;;;;;;;3.99;100.00;92993.09;2090339;28;20474;-87
2024/04/19 04:55:04;;;;;;;7.78;6.45;;;;;;;4.12;100.00;92990.09;2088367;28;20056;-87
2024/04/19 04:56:06;;;;;;;6.40;5.80;;;;;;;4.16;100.00;92982.91;2095707;28;20024;-88
2024/04/19 04:57:09;;;;;;;6.55;5.95;;;;;;;4.12;100.00;92990.84;2094109;28;20067;-87
2024/04/19 04:58:13;;;;;;;8.00;6.68;;;;;;;4.21;100.00;92991.22;2094989;28;20025;-87